Time;durP1;ratioP1;P1;durP2;ratioP2;P2;SDS_P1;SDS_P2;PMS_P1;PMS_P2;Temp;Humidity;BMP_temperature;BMP_pressure;BME280_temperature;BME280_humidity;BME280_pressure;Samples;Min_cycle;Max_cycle;Signal;HPM_P1;HPM_P2
2023/07/05 00:00:25;;;;;;;7.25;3.30;;;15.70;99.90;;;;;;5032796;28;20037;-80
2023/07/05 00:02:52;;;;;;;7.55;3.20;;;15.70;99.90;;;;;;5032147;28;20041;-75
2023/07/05 00:05:18;;;;;;;6.68;3.05;;;15.60;99.90;;;;;;5032485;28;20098;-79
2023/07/05 00:07:43;;;;;;;5.07;3.38;;;15.80;99.90;;;;;;5032861;28;20565;-77
2023/07/05 00:10:10;;;;;;;5.05;3.25;;;15.60;99.90;;;;;;5049611;28;20043;-78
2023/07/05 00:12:35;;;;;;;9.50;4.13;;;15.50;99.90;;;;;;5062066;28;20045;-79
2023/07/05 00:15:01;;;;;;;6.65;4.43;;;15.60;99.90;;;;;;5052215;28;20048;-75
2023/07/05 00:17:27;;;;;;;6.75;4.00;;;15.50;99.90;;;;;;5032709;28;20063;-79
2023/07/05 00:19:53;;;;;;;6.18;4.30;;;15.70;99.90;;;;;;4999937;28;20080;-76
2023/07/05 00:22:19;;;;;;;8.20;4.53;;;15.80;99.90;;;;;;5019838;28;20044;-77
2023/07/05 00:24:45;;;;;;;7.90;4.35;;;15.90;99.90;;;;;;5039230;28;20429;-77
2023/07/05 00:27:12;;;;;;;6.40;4.57;;;15.50;99.90;;;;;;5032652;28;20048;-76
2023/07/05 00:29:38;;;;;;;10.13;4.72;;;15.60;99.90;;;;;;5031595;28;20079;-78
2023/07/05 00:32:04;;;;;;;10.45;4.32;;;15.60;99.90;;;;;;5048137;28;20045;-74
2023/07/05 00:34:30;;;;;;;7.53;5.28;;;15.70;99.90;;;;;;5048728;28;20108;-77
2023/07/05 00:36:55;;;;;;;8.88;4.55;;;15.60;99.90;;;;;;5049013;28;20064;-75
2023/07/05 00:39:21;;;;;;;7.78;5.38;;;15.60;99.90;;;;;;5015530;28;20524;-74
2023/07/05 00:41:47;;;;;;;6.55;4.68;;;15.80;99.90;;;;;;5031333;28;20037;-74
2023/07/05 00:44:14;;;;;;;8.93;4.95;;;15.80;99.90;;;;;;5014835;28;20373;-78
2023/07/05 00:46:45;;;;;;;7.55;4.55;;;15.60;99.90;;;;;;5048675;28;20426;-80
2023/07/05 00:49:16;;;;;;;6.05;4.45;;;15.60;99.90;;;;;;5025150;28;20106;-76
2023/07/05 00:51:58;;;;;;;6.28;4.25;;;15.60;99.90;;;;;;5031267;28;20060;-76
2023/07/05 00:54:32;;;;;;;6.38;4.30;;;15.50;99.90;;;;;;5048716;28;20040;-81
2023/07/05 00:57:15;;;;;;;7.60;5.10;;;15.60;99.90;;;;;;5054937;28;20041;-76
2023/07/05 00:59:51;;;;;;;8.05;5.03;;;15.40;99.90;;;;;;5031311;28;20057;-73
2023/07/05 01:02:16;;;;;;;8.35;5.45;;;15.30;99.90;;;;;;5047463;28;20122;-76
2023/07/05 01:04:42;;;;;;;10.55;6.53;;;15.40;99.90;;;;;;5047783;28;20053;-75
2023/07/05 01:07:08;;;;;;;7.63;4.75;;;15.50;99.90;;;;;;5048386;28;20128;-75
2023/07/05 01:09:34;;;;;;;6.90;5.32;;;15.70;99.90;;;;;;5031345;28;20029;-78
2023/07/05 01:12:23;;;;;;;9.07;5.63;;;15.60;99.90;;;;;;5031940;28;20119;-76
2023/07/05 01:15:01;;;;;;;8.27;4.90;;;15.90;99.90;;;;;;5042605;28;20029;-75
2023/07/05 01:17:41;;;;;;;10.23;6.20;;;15.90;99.90;;;;;;5048387;28;20047;-77
2023/07/05 01:20:38;;;;;;;11.70;6.18;;;15.70;99.90;;;;;;5047960;28;20076;-74
2023/07/05 01:23:25;;;;;;;11.13;6.03;;;15.90;99.90;;;;;;5027690;28;20045;-75
2023/07/05 01:26:16;;;;;;;6.85;5.28;;;15.80;99.90;;;;;;5042881;28;20362;-78
2023/07/05 01:28:50;;;;;;;8.40;6.40;;;16.00;99.90;;;;;;5064903;28;20496;-78
2023/07/05 01:31:19;;;;;;;7.53;5.80;;;15.80;99.90;;;;;;5043983;28;20501;-75
2023/07/05 01:34:05;;;;;;;7.22;4.97;;;15.90;99.90;;;;;;5048033;28;20106;-72
2023/07/05 01:36:31;;;;;;;9.65;5.85;;;15.90;99.90;;;;;;5050916;28;20043;-73
2023/07/05 01:38:57;;;;;;;10.38;6.75;;;16.30;99.90;;;;;;5051248;28;20043;-79
2023/07/05 01:41:24;;;;;;;11.00;7.40;;;15.80;99.90;;;;;;5031242;28;20032;-73
2023/07/05 01:43:51;;;;;;;11.30;7.03;;;16.30;99.90;;;;;;5033057;28;20087;-80
2023/07/05 01:46:53;;;;;;;9.68;7.28;;;15.70;99.90;;;;;;5031807;28;20041;-75
2023/07/05 01:49:34;;;;;;;11.23;6.80;;;16.10;99.90;;;;;;5045213;28;20084;-75
2023/07/05 01:52:19;;;;;;;10.30;7.57;;;16.00;99.90;;;;;;5059787;28;20093;-77
2023/07/05 01:55:10;;;;;;;7.72;6.65;;;15.50;99.90;;;;;;5029991;28;20076;-76
2023/07/05 01:57:46;;;;;;;13.02;8.77;;;15.40;99.90;;;;;;5044328;28;20691;-74
2023/07/05 02:00:15;;;;;;;10.88;7.93;;;16.40;99.90;;;;;;5047788;28;20460;-78
2023/07/05 02:02:57;;;;;;;10.70;8.45;;;16.50;99.90;;;;;;5028300;28;20053;-76
2023/07/05 02:05:27;;;;;;;9.52;7.95;;;15.30;99.90;;;;;;5046316;28;20037;-77
2023/07/05 02:07:53;;;;;;;10.73;8.13;;;15.80;99.90;;;;;;5052818;28;20064;-78
2023/07/05 02:10:21;;;;;;;9.30;7.40;;;16.60;99.90;;;;;;5035001;28;20825;-75
2023/07/05 02:12:47;;;;;;;11.95;7.80;;;15.20;99.90;;;;;;5015992;28;20037;-75
2023/07/05 02:15:13;;;;;;;11.77;8.07;;;15.60;99.90;;;;;;5047306;28;20123;-77
2023/07/05 02:17:39;;;;;;;12.75;8.38;;;16.30;99.90;;;;;;5052907;28;20083;-74
2023/07/05 02:20:06;;;;;;;10.38;9.10;;;16.20;99.90;;;;;;5031348;28;20449;-75
2023/07/05 02:22:32;;;;;;;9.10;7.03;;;16.10;99.90;;;;;;5037584;28;20086;-76
2023/07/05 02:24:57;;;;;;;12.30;8.57;;;15.80;99.90;;;;;;5030526;28;20053;-76
2023/07/05 02:27:23;;;;;;;9.25;8.13;;;15.70;99.90;;;;;;5033795;28;20497;-77
2023/07/05 02:29:50;;;;;;;11.52;8.35;;;16.40;99.90;;;;;;5047735;28;20358;-77
2023/07/05 02:32:16;;;;;;;12.07;9.00;;;16.50;99.90;;;;;;5029557;28;20090;-75
2023/07/05 02:34:42;;;;;;;12.30;8.45;;;15.90;99.90;;;;;;5046284;28;20489;-73
2023/07/05 02:37:10;;;;;;;12.98;9.13;;;15.70;99.90;;;;;;5049279;28;20514;-76
2023/07/05 02:39:36;;;;;;;12.13;9.00;;;16.50;99.90;;;;;;5037653;28;20033;-74
2023/07/05 02:42:02;;;;;;;11.20;8.45;;;16.20;99.90;;;;;;5031714;28;20056;-73
2023/07/05 02:44:28;;;;;;;13.30;9.32;;;16.40;99.90;;;;;;5047248;28;20044;-76
2023/07/05 02:46:54;;;;;;;13.65;9.90;;;16.10;99.90;;;;;;5043977;28;20045;-74
2023/07/05 02:49:19;;;;;;;11.60;9.70;;;15.00;99.90;;;;;;5034149;28;20087;-76
2023/07/05 02:51:45;;;;;;;12.48;8.07;;;16.60;99.90;;;;;;5030195;28;20159;-75
2023/07/05 02:54:11;;;;;;;13.82;9.75;;;15.60;99.90;;;;;;5012371;28;20045;-72
2023/07/05 02:56:36;;;;;;;14.48;9.23;;;16.80;99.90;;;;;;5030095;28;20052;-73
2023/07/05 02:59:02;;;;;;;15.45;9.25;;;15.10;99.90;;;;;;5045843;28;20045;-75
2023/07/05 03:01:28;;;;;;;13.00;9.23;;;15.10;99.90;;;;;;5013344;28;20043;-79
2023/07/05 03:03:54;;;;;;;11.27;9.48;;;16.00;99.90;;;;;;5045777;28;20060;-73
2023/07/05 03:06:19;;;;;;;16.10;10.68;;;14.90;99.90;;;;;;5012221;28;20099;-78
2023/07/05 03:08:45;;;;;;;13.95;10.15;;;15.10;99.90;;;;;;5045673;28;20091;-75
2023/07/05 03:11:11;;;;;;;14.93;10.30;;;15.40;99.90;;;;;;5045912;28;20041;-76
2023/07/05 03:13:36;;;;;;;14.15;8.50;;;15.90;99.90;;;;;;5029352;28;20036;-74
2023/07/05 03:16:03;;;;;;;11.55;9.38;;;15.60;99.90;;;;;;5030077;28;20041;-77
2023/07/05 03:18:29;;;;;;;10.13;7.85;;;17.20;99.90;;;;;;5050485;28;20045;-78
2023/07/05 03:20:55;;;;;;;16.30;10.10;;;14.90;99.90;;;;;;5049852;28;20037;-76
2023/07/05 03:23:21;;;;;;;12.02;9.73;;;16.50;99.90;;;;;;5048979;28;20132;-75
2023/07/05 03:26:02;;;;;;;11.23;7.03;;;15.40;99.90;;;;;;5033015;28;20123;-77
2023/07/05 03:28:30;;;;;;;14.48;10.23;;;16.50;99.90;;;;;;5054245;28;20076;-74
2023/07/05 03:31:01;;;;;;;19.30;12.90;;;15.50;99.90;;;;;;5033465;28;20077;-79
2023/07/05 03:33:28;;;;;;;18.27;12.90;;;17.30;99.90;;;;;;5056859;28;20127;-77
2023/07/05 03:35:58;;;;;;;18.38;10.93;;;16.60;99.90;;;;;;5031847;28;20060;-74
2023/07/05 03:38:26;;;;;;;11.48;8.80;;;16.40;99.90;;;;;;5055443;28;20056;-73
2023/07/05 03:41:03;;;;;;;16.67;11.10;;;16.70;99.90;;;;;;5049937;28;20082;-76
2023/07/05 03:43:32;;;;;;;13.68;10.38;;;15.30;99.90;;;;;;5040010;28;20044;-76
2023/07/05 03:46:02;;;;;;;11.50;9.35;;;15.80;99.90;;;;;;5048741;28;20037;-72
2023/07/05 03:48:34;;;;;;;13.68;9.85;;;15.50;99.90;;;;;;5049211;28;20078;-74
2023/07/05 03:51:00;;;;;;;14.25;10.18;;;16.40;99.90;;;;;;5049864;28;20112;-75
2023/07/05 03:53:26;;;;;;;18.70;12.80;;;16.20;99.90;;;;;;5055715;28;20037;-75
2023/07/05 03:55:53;;;;;;;12.05;8.32;;;15.30;99.90;;;;;;5047936;28;20037;-72
2023/07/05 03:58:19;;;;;;;18.73;13.27;;;16.40;99.90;;;;;;5038495;28;20053;-73
2023/07/05 04:00:46;;;;;;;13.88;10.27;;;16.70;99.90;;;;;;5047800;28;20072;-75
2023/07/05 04:03:12;;;;;;;15.48;12.25;;;16.70;99.90;;;;;;5055995;28;20040;-73
2023/07/05 04:05:39;;;;;;;20.10;12.70;;;16.20;99.90;;;;;;5057417;28;20120;-79
2023/07/05 04:08:04;;;;;;;14.85;11.98;;;17.40;99.90;;;;;;5053739;28;20059;-79
2023/07/05 04:10:30;;;;;;;18.45;14.05;;;16.80;99.90;;;;;;5033031;28;20033;-73
2023/07/05 04:12:56;;;;;;;25.60;17.42;;;15.90;99.90;;;;;;5054418;28;20049;-79
2023/07/05 04:15:22;;;;;;;18.33;14.40;;;17.60;99.90;;;;;;5008736;28;20455;-77
2023/07/05 04:17:47;;;;;;;17.65;14.10;;;17.80;99.90;;;;;;5036772;28;20036;-78
2023/07/05 04:20:13;;;;;;;15.70;12.23;;;17.10;99.90;;;;;;5046349;28;20051;-74
2023/07/05 04:22:40;;;;;;;17.75;14.38;;;17.10;99.90;;;;;;5037368;28;20052;-75
2023/07/05 04:25:10;;;;;;;14.52;9.27;;;17.20;99.90;;;;;;5031657;28;20055;-74
2023/07/05 04:27:36;;;;;;;10.48;7.72;;;17.10;99.90;;;;;;5049701;28;20086;-75
2023/07/05 04:30:03;;;;;;;10.68;8.02;;;17.70;99.90;;;;;;5047480;28;20148;-76
2023/07/05 04:32:30;;;;;;;11.57;9.75;;;18.30;99.90;;;;;;5034460;28;20537;-77
2023/07/05 04:34:56;;;;;;;12.98;10.25;;;16.90;99.90;;;;;;5033794;28;20033;-75
2023/07/05 04:37:21;;;;;;;13.88;10.65;;;16.60;99.90;;;;;;5047430;28;20079;-75
2023/07/05 04:39:47;;;;;;;15.68;12.18;;;18.10;99.90;;;;;;5049585;28;20041;-74
2023/07/05 04:42:13;;;;;;;12.25;10.18;;;17.20;99.90;;;;;;5048049;28;20045;-74
2023/07/05 04:44:39;;;;;;;11.30;9.75;;;15.50;99.90;;;;;;5036132;28;20052;-76
2023/07/05 04:47:05;;;;;;;12.60;8.40;;;15.90;99.90;;;;;;5031087;28;20044;-72
2023/07/05 04:49:31;;;;;;;14.25;11.95;;;15.60;99.90;;;;;;5048073;28;20041;-74
2023/07/05 04:51:56;;;;;;;17.17;12.13;;;15.50;99.90;;;;;;5028300;28;20367;-76
2023/07/05 04:54:22;;;;;;;13.38;9.55;;;17.70;99.90;;;;;;5048928;28;20049;-79
2023/07/05 04:56:48;;;;;;;13.40;9.35;;;16.10;99.90;;;;;;5015195;28;20037;-74
2023/07/05 04:59:13;;;;;;;11.45;9.02;;;18.10;99.90;;;;;;5019006;28;20045;-73
2023/07/05 05:01:40;;;;;;;10.25;8.93;;;18.20;99.90;;;;;;5030497;28;20397;-76
2023/07/05 05:04:06;;;;;;;10.60;9.15;;;17.10;99.90;;;;;;5054499;28;20563;-76
2023/07/05 05:06:32;;;;;;;8.23;6.38;;;18.30;99.90;;;;;;5047495;28;20115;-74
2023/07/05 05:08:57;;;;;;;11.30;8.15;;;19.50;99.90;;;;;;5019068;28;20055;-74
2023/07/05 05:11:26;;;;;;;9.60;7.28;;;19.40;99.90;;;;;;5046663;28;20045;-73
2023/07/05 05:13:52;;;;;;;10.93;7.90;;;15.90;99.90;;;;;;5051175;28;20151;-75
2023/07/05 05:16:18;;;;;;;9.93;6.50;;;17.60;99.90;;;;;;5031694;28;20049;-77
2023/07/05 05:18:44;;;;;;;10.73;7.05;;;16.50;99.90;;;;;;5050209;28;20511;-74
2023/07/05 05:21:10;;;;;;;13.50;7.63;;;17.30;99.90;;;;;;5030954;28;20886;-74
2023/07/05 05:23:36;;;;;;;13.65;6.60;;;16.90;99.90;;;;;;5033781;28;20102;-75
2023/07/05 05:26:03;;;;;;;8.32;5.65;;;17.60;99.90;;;;;;5030160;28;20028;-75
2023/07/05 05:28:30;;;;;;;7.43;4.93;;;17.20;99.90;;;;;;5047062;28;20366;-77
2023/07/05 05:31:08;;;;;;;6.88;4.75;;;14.90;99.90;;;;;;5048305;28;20037;-76
2023/07/05 05:33:34;;;;;;;6.95;4.32;;;17.90;99.90;;;;;;5049177;28;20043;-74
2023/07/05 05:36:00;;;;;;;6.85;4.72;;;14.70;99.90;;;;;;5047197;28;20041;-71
2023/07/05 05:38:26;;;;;;;6.38;4.80;;;15.70;99.90;;;;;;5054344;28;20147;-74
2023/07/05 05:40:52;;;;;;;7.35;5.22;;;14.50;99.90;;;;;;5047125;28;20115;-72
2023/07/05 05:43:19;;;;;;;6.53;5.72;;;18.10;99.90;;;;;;5042873;28;20037;-72
2023/07/05 05:45:45;;;;;;;5.10;4.60;;;14.50;99.90;;;;;;5030573;28;20063;-75
2023/07/05 05:48:11;;;;;;;7.53;5.15;;;14.60;99.90;;;;;;5030320;28;20041;-74
2023/07/05 05:50:37;;;;;;;6.55;5.25;;;16.30;99.90;;;;;;5031226;28;20525;-73
2023/07/05 05:53:02;;;;;;;7.07;3.92;;;17.70;99.90;;;;;;5033067;28;20041;-73
2023/07/05 05:55:28;;;;;;;5.88;5.07;;;14.50;99.90;;;;;;5049773;28;20083;-74
2023/07/05 05:57:54;;;;;;;6.25;5.32;;;17.70;99.90;;;;;;5046892;28;20123;-73
2023/07/05 06:00:21;;;;;;;6.03;5.05;;;18.10;99.90;;;;;;5030875;28;20117;-72
2023/07/05 06:02:46;;;;;;;6.03;5.10;;;18.00;99.90;;;;;;5032612;28;20047;-70
2023/07/05 06:05:12;;;;;;;5.32;4.80;;;15.70;99.90;;;;;;5049793;28;20049;-72
2023/07/05 06:07:38;;;;;;;7.00;4.93;;;15.30;99.90;;;;;;5053840;28;20092;-71
2023/07/05 06:10:05;;;;;;;7.25;5.13;;;15.70;99.90;;;;;;4997436;28;20041;-71
2023/07/05 06:12:30;;;;;;;5.13;3.92;;;16.70;99.90;;;;;;5049154;28;20052;-71
2023/07/05 06:14:56;;;;;;;5.45;3.60;;;16.60;99.90;;;;;;5043044;28;20044;-75
2023/07/05 06:17:22;;;;;;;7.15;4.18;;;15.10;99.90;;;;;;5038287;28;20390;-73
2023/07/05 06:19:47;;;;;;;7.88;4.60;;;16.80;99.90;;;;;;5030375;28;20677;-76
2023/07/05 06:22:13;;;;;;;4.47;3.85;;;18.00;99.90;;;;;;5029563;28;20060;-73
2023/07/05 06:24:42;;;;;;;5.90;4.35;;;17.80;99.90;;;;;;5046436;28;20041;-75
2023/07/05 06:27:08;;;;;;;4.88;3.20;;;15.10;99.90;;;;;;5054003;28;20045;-76
2023/07/05 06:29:33;;;;;;;4.00;3.17;;;15.60;99.90;;;;;;5030463;28;20025;-74
2023/07/05 06:31:59;;;;;;;5.07;3.65;;;16.20;99.90;;;;;;5047181;28;20114;-77
2023/07/05 06:34:25;;;;;;;5.82;3.30;;;17.00;99.90;;;;;;5032846;28;20037;-75
2023/07/05 06:36:51;;;;;;;6.05;4.30;;;16.30;99.90;;;;;;5029217;28;20057;-74
2023/07/05 06:39:17;;;;;;;6.72;3.80;;;15.60;99.90;;;;;;5013862;28;20094;-76
2023/07/05 06:41:42;;;;;;;5.18;4.07;;;17.00;99.90;;;;;;5011422;28;20143;-75
2023/07/05 06:44:08;;;;;;;4.15;3.58;;;16.50;99.90;;;;;;5027728;28;20131;-77
2023/07/05 06:46:34;;;;;;;6.13;3.80;;;16.40;99.90;;;;;;5030338;28;20055;-73
2023/07/05 06:49:00;;;;;;;11.55;3.25;;;17.00;99.90;;;;;;5030598;28;20117;-75
2023/07/05 06:51:25;;;;;;;8.07;4.57;;;16.40;99.90;;;;;;5012767;28;20116;-74
2023/07/05 06:53:51;;;;;;;4.43;3.08;;;16.00;99.90;;;;;;5053952;28;20064;-75
2023/07/05 06:56:17;;;;;;;4.82;3.50;;;15.80;99.90;;;;;;5032111;28;20727;-76
2023/07/05 06:58:43;;;;;;;3.97;3.20;;;16.20;99.90;;;;;;5026504;28;20492;-74
2023/07/05 07:01:09;;;;;;;8.05;3.20;;;15.70;99.90;;;;;;5032105;28;20052;-74
2023/07/05 07:03:35;;;;;;;5.00;3.03;;;16.20;99.90;;;;;;5033075;28;20567;-74
2023/07/05 07:06:00;;;;;;;6.55;3.50;;;16.30;99.90;;;;;;5039757;28;20097;-74
2023/07/05 07:08:33;;;;;;;3.33;2.38;;;17.00;99.90;;;;;;5033213;28;20033;-74
2023/07/05 07:11:04;;;;;;;4.95;2.97;;;16.50;99.90;;;;;;5049710;28;20048;-76
2023/07/05 07:13:31;;;;;;;4.85;3.90;;;16.60;99.90;;;;;;5033557;28;20063;-75
2023/07/05 07:16:05;;;;;;;4.32;3.20;;;17.10;99.90;;;;;;5032863;28;20029;-76
2023/07/05 07:18:31;;;;;;;4.05;3.00;;;17.10;99.90;;;;;;5033904;28;20045;-78
2023/07/05 07:20:59;;;;;;;3.47;2.70;;;17.70;99.90;;;;;;5032624;28;20053;-75
2023/07/05 07:23:25;;;;;;;4.55;3.38;;;16.80;99.90;;;;;;5032679;28;20040;-76
2023/07/05 07:26:03;;;;;;;5.78;2.97;;;17.50;99.90;;;;;;5049151;28;20127;-77
2023/07/05 07:28:29;;;;;;;7.80;3.90;;;17.10;99.90;;;;;;5064137;28;20041;-77
2023/07/05 07:30:55;;;;;;;4.00;2.67;;;17.20;99.90;;;;;;5049974;28;20071;-75
2023/07/05 07:33:21;;;;;;;4.13;2.75;;;17.60;99.90;;;;;;5049285;28;20036;-75
2023/07/05 07:35:48;;;;;;;3.78;2.67;;;17.40;99.90;;;;;;5029395;28;20045;-77
2023/07/05 07:38:15;;;;;;;4.13;2.45;;;17.50;99.90;;;;;;5047628;28;20063;-74
2023/07/05 07:40:40;;;;;;;4.40;2.20;;;16.70;99.90;;;;;;5049833;28;20493;-77
2023/07/05 07:43:07;;;;;;;4.43;2.47;;;17.20;99.90;;;;;;5031481;28;20068;-75
2023/07/05 07:45:33;;;;;;;4.63;2.63;;;17.50;99.90;;;;;;5042447;28;20036;-77
2023/07/05 07:47:59;;;;;;;2.78;1.85;;;17.20;99.90;;;;;;5049038;28;20037;-77
2023/07/05 07:50:25;;;;;;;5.22;2.70;;;16.50;99.90;;;;;;5049002;28;20052;-77
2023/07/05 07:52:52;;;;;;;3.40;2.28;;;17.00;99.90;;;;;;5048064;28;20041;-74
2023/07/05 07:55:17;;;;;;;3.60;2.30;;;16.50;99.90;;;;;;5025220;28;20041;-76
2023/07/05 07:57:43;;;;;;;3.35;2.63;;;16.10;99.90;;;;;;5032376;28;20059;-76
2023/07/05 08:00:10;;;;;;;4.18;1.92;;;16.20;99.90;;;;;;5015679;28;20486;-77
2023/07/05 08:02:39;;;;;;;3.33;1.67;;;16.40;99.90;;;;;;5016050;28;20044;-74
2023/07/05 08:05:18;;;;;;;3.33;2.33;;;15.80;99.90;;;;;;5031753;28;20522;-75
2023/07/05 08:07:44;;;;;;;2.65;2.22;;;15.80;99.90;;;;;;5049135;28;20564;-76
2023/07/05 08:10:10;;;;;;;2.88;1.80;;;15.90;99.90;;;;;;5047738;28;20389;-77
2023/07/05 08:12:35;;;;;;;3.42;1.73;;;15.60;99.90;;;;;;5032777;28;20041;-78
2023/07/05 08:15:02;;;;;;;1.42;1.05;;;14.70;99.90;;;;;;5046746;28;20499;-77
2023/07/05 08:17:28;;;;;;;2.33;1.33;;;14.80;99.90;;;;;;5012909;28;20042;-78
2023/07/05 08:19:54;;;;;;;1.98;1.05;;;14.20;99.90;;;;;;5011159;28;20045;-80
2023/07/05 08:22:19;;;;;;;1.52;1.10;;;14.80;99.90;;;;;;5011166;28;20054;-75
2023/07/05 08:24:45;;;;;;;1.00;0.90;;;13.90;99.90;;;;;;5004309;28;20049;-76
2023/07/05 08:27:11;;;;;;;1.85;1.30;;;14.30;99.90;;;;;;5056524;28;20048;-77
2023/07/05 08:29:37;;;;;;;1.60;1.02;;;14.30;99.90;;;;;;5015842;28;20036;-78
2023/07/05 08:32:03;;;;;;;8.77;1.25;;;14.70;99.90;;;;;;5031065;28;20045;-75
2023/07/05 08:34:30;;;;;;;1.30;1.02;;;14.60;99.90;;;;;;5028284;28;20036;-76
2023/07/05 08:36:55;;;;;;;2.90;1.52;;;13.90;99.90;;;;;;5049775;28;20056;-78
2023/07/05 08:39:22;;;;;;;1.38;0.93;;;13.50;99.90;;;;;;5045425;28;20051;-77
2023/07/05 08:42:00;;;;;;;0.63;0.60;;;14.40;99.90;;;;;;5023835;28;20432;-80
2023/07/05 08:44:58;;;;;;;1.92;1.05;;;12.80;99.90;;;;;;5041864;28;20122;-78
2023/07/05 08:47:30;;;;;;;1.17;0.80;;;14.60;99.90;;;;;;5055285;28;20072;-79
2023/07/05 08:50:09;;;;;;;2.10;1.13;;;12.70;99.90;;;;;;5048061;28;20036;-76
2023/07/05 08:52:42;;;;;;;1.35;1.00;;;13.00;99.90;;;;;;5037605;28;20037;-79
2023/07/05 08:55:16;;;;;;;1.48;0.70;;;13.30;99.90;;;;;;5060256;28;20068;-77
2023/07/05 08:57:50;;;;;;;3.00;0.90;;;15.00;99.90;;;;;;5067933;28;20119;-78
2023/07/05 09:00:21;;;;;;;2.37;0.97;;;14.00;99.90;;;;;;5058142;28;20086;-77
2023/07/05 09:02:47;;;;;;;2.70;1.10;;;13.40;99.90;;;;;;5046809;28;20299;-77
2023/07/05 09:05:21;;;;;;;2.15;1.15;;;13.50;99.90;;;;;;5061226;28;20037;-79
2023/07/05 09:08:23;;;;;;;1.20;0.90;;;13.60;99.90;;;;;;5067752;28;20382;-77
2023/07/05 09:10:55;;;;;;;2.30;0.88;;;13.00;99.90;;;;;;5046829;28;20171;-76
2023/07/05 09:13:31;;;;;;;3.00;1.00;;;12.80;99.90;;;;;;5025828;28;20128;-77
2023/07/05 09:16:05;;;;;;;2.20;0.70;;;12.90;99.90;;;;;;5067143;28;20044;-79
2023/07/05 09:18:58;;;;;;;1.40;1.08;;;14.90;99.90;;;;;;5050946;28;20045;-77
2023/07/05 09:21:34;;;;;;;3.20;1.45;;;14.90;99.90;;;;;;5048860;28;20597;-75
2023/07/05 09:24:17;;;;;;;3.10;1.02;;;15.00;99.90;;;;;;5045854;28;20047;-79
2023/07/05 09:26:55;;;;;;;2.45;1.60;;;14.60;99.90;;;;;;5047676;28;20075;-75
2023/07/05 09:29:36;;;;;;;4.95;1.20;;;13.80;99.90;;;;;;5053095;28;20064;-76
2023/07/05 09:32:09;;;;;;;4.65;1.40;;;13.90;99.90;;;;;;5047129;28;20090;-75
2023/07/05 09:34:40;;;;;;;1.48;1.00;;;15.40;99.90;;;;;;5030071;28;20044;-77
2023/07/05 09:37:23;;;;;;;3.40;1.50;;;15.20;99.90;;;;;;5022362;28;20076;-78
2023/07/05 09:39:53;;;;;;;3.45;1.65;;;14.80;99.90;;;;;;5031403;28;20040;-77
2023/07/05 09:42:26;;;;;;;3.75;1.60;;;13.60;99.90;;;;;;5046569;28;20465;-76
2023/07/05 09:44:52;;;;;;;4.25;1.27;;;13.80;99.90;;;;;;5045438;28;20071;-75
2023/07/05 09:47:20;;;;;;;6.13;1.95;;;14.60;99.90;;;;;;5046821;28;20146;-76
2023/07/05 09:49:46;;;;;;;5.88;1.60;;;15.10;99.90;;;;;;5026617;28;20139;-77
2023/07/05 09:52:15;;;;;;;4.43;1.73;;;16.00;99.90;;;;;;5012294;28;20039;-78
2023/07/05 09:54:42;;;;;;;7.47;1.67;;;14.10;99.90;;;;;;5030257;28;20037;-79
2023/07/05 09:57:09;;;;;;;6.40;1.30;;;14.30;99.90;;;;;;5013817;28;20064;-78
2023/07/05 09:59:37;;;;;;;4.45;0.90;;;14.70;99.90;;;;;;5029199;28;20045;-78
2023/07/05 10:02:14;;;;;;;5.78;0.90;;;15.00;99.90;;;;;;5022923;28;20371;-75
2023/07/05 10:04:48;;;;;;;7.70;1.42;;;15.10;99.90;;;;;;5046562;28;20036;-75
2023/07/05 10:07:22;;;;;;;5.37;0.97;;;15.10;99.90;;;;;;5029449;28;20417;-76
2023/07/05 10:09:59;;;;;;;3.15;0.77;;;15.80;99.90;;;;;;5045262;28;20279;-77
2023/07/05 10:12:37;;;;;;;5.60;1.00;;;15.00;99.90;;;;;;5027462;28;20512;-77
2023/07/05 10:15:21;;;;;;;8.82;1.20;;;15.90;99.90;;;;;;5046394;28;20124;-76
2023/07/05 10:17:51;;;;;;;8.93;1.60;;;15.90;99.90;;;;;;5029772;28;20068;-74
2023/07/05 10:20:38;;;;;;;2.95;0.70;;;15.70;99.90;;;;;;5029468;28;20099;-77
2023/07/05 10:23:13;;;;;;;5.30;1.05;;;15.40;99.90;;;;;;5022883;28;20041;-77
2023/07/05 10:25:41;;;;;;;9.57;1.08;;;14.80;99.90;;;;;;5042937;28;20049;-75
2023/07/05 10:28:12;;;;;;;2.75;0.80;;;16.20;99.90;;;;;;5043919;28;20982;-77
2023/07/05 10:30:49;;;;;;;6.40;1.00;;;16.20;99.90;;;;;;5044595;28;20037;-76
2023/07/05 10:33:16;;;;;;;1.20;0.85;;;16.40;99.90;;;;;;5037814;28;20043;-77
2023/07/05 10:35:53;;;;;;;5.40;0.82;;;16.70;99.90;;;;;;5041493;28;20584;-77
2023/07/05 10:38:46;;;;;;;3.50;0.80;;;16.40;99.90;;;;;;5043344;28;20041;-77
2023/07/05 10:41:25;;;;;;;5.45;0.68;;;16.40;99.90;;;;;;5025861;28;20033;-77
2023/07/05 10:43:54;;;;;;;0.90;0.75;;;15.90;99.90;;;;;;5041366;28;20068;-79
2023/07/05 10:46:24;;;;;;;4.38;1.00;;;16.30;99.90;;;;;;5028318;28;20082;-79
2023/07/05 10:48:52;;;;;;;3.95;0.88;;;16.70;99.90;;;;;;5016697;28;20557;-78
2023/07/05 10:51:24;;;;;;;3.10;0.82;;;16.90;99.90;;;;;;5033520;28;20111;-78
2023/07/05 10:54:15;;;;;;;1.65;0.70;;;16.70;99.90;;;;;;5070154;28;20115;-78
2023/07/05 10:56:43;;;;;;;3.03;1.00;;;16.00;99.90;;;;;;5023958;28;20099;-79
2023/07/05 10:59:39;;;;;;;4.88;0.88;;;16.60;99.90;;;;;;5033765;28;20555;-78
2023/07/05 11:02:17;;;;;;;;;;;16.80;99.90;;;;;;5044431;28;20067;-77
2023/07/05 11:04:44;;;;;;;1.67;0.70;;;16.90;99.90;;;;;;5039400;28;20015;-78
2023/07/05 11:07:12;;;;;;;2.22;0.68;;;17.10;99.90;;;;;;5030287;28;20159;-79
2023/07/05 11:09:40;;;;;;;2.50;0.85;;;17.40;99.90;;;;;;5009506;28;20045;-76
2023/07/05 11:12:16;;;;;;;3.50;0.60;;;18.00;99.90;;;;;;5013613;28;20534;-79
2023/07/05 11:14:43;;;;;;;10.38;0.90;;;17.70;99.90;;;;;;5028615;28;20041;-78
2023/07/05 11:17:21;;;;;;;3.00;0.80;;;18.00;99.90;;;;;;5012628;28;20037;-79
2023/07/05 11:19:47;;;;;;;1.48;1.30;;;18.00;99.90;;;;;;5004564;28;20029;-78
2023/07/05 11:22:40;;;;;;;1.42;0.60;;;18.50;99.90;;;;;;5046339;28;20078;-77
2023/07/05 11:25:12;;;;;;;1.38;1.10;;;18.80;99.90;;;;;;5029257;28;20053;-77
2023/07/05 11:27:46;;;;;;;1.80;0.73;;;19.40;99.90;;;;;;5028887;28;20037;-77
2023/07/05 11:30:43;;;;;;;1.40;0.90;;;19.60;99.90;;;;;;5028890;28;20117;-76
2023/07/05 11:33:09;;;;;;;1.73;1.08;;;19.50;99.90;;;;;;5045466;28;20156;-76
2023/07/05 11:36:08;;;;;;;2.78;1.10;;;20.00;99.90;;;;;;5042529;28;20080;-76
2023/07/05 11:38:37;;;;;;;3.53;1.20;;;19.30;99.90;;;;;;5027120;28;20039;-76
2023/07/05 11:41:08;;;;;;;1.90;1.08;;;19.30;99.90;;;;;;5032574;28;20695;-77
2023/07/05 11:43:36;;;;;;;3.75;0.98;;;19.60;99.90;;;;;;5031818;28;20040;-76
2023/07/05 11:46:34;;;;;;;5.28;0.90;;;20.10;99.90;;;;;;5047562;28;20036;-75
2023/07/05 11:49:14;;;;;;;3.47;1.58;;;19.50;99.90;;;;;;5032720;28;20045;-75
2023/07/05 11:51:40;;;;;;;2.45;1.00;;;19.20;99.90;;;;;;5047495;28;20134;-76
2023/07/05 11:54:08;;;;;;;3.13;1.20;;;19.20;99.90;;;;;;5032552;28;20041;-75
2023/07/05 11:56:37;;;;;;;3.47;1.42;;;18.90;99.90;;;;;;5012608;28;20037;-76
2023/07/05 11:59:06;;;;;;;3.25;1.52;;;18.70;99.90;;;;;;5040915;28;20088;-77
2023/07/05 12:01:37;;;;;;;4.95;1.42;;;18.90;99.90;;;;;;5063374;28;20142;-77
2023/07/05 12:04:06;;;;;;;5.78;1.30;;;19.10;99.90;;;;;;5032256;28;20065;-76
2023/07/05 12:06:43;;;;;;;2.70;1.10;;;19.00;99.90;;;;;;5045069;28;20097;-76
2023/07/05 12:09:29;;;;;;;3.05;1.15;;;19.10;99.90;;;;;;5043806;28;20374;-79
2023/07/05 12:11:56;;;;;;;2.80;1.00;;;19.20;99.90;;;;;;5045218;28;20567;-78
2023/07/05 12:14:22;;;;;;;5.40;1.40;;;19.20;99.90;;;;;;5002106;28;20512;-78
2023/07/05 12:16:49;;;;;;;2.42;1.23;;;19.10;99.90;;;;;;5031760;28;20064;-76
2023/07/05 12:19:21;;;;;;;7.88;1.98;;;18.80;99.90;;;;;;5048377;28;20041;-78
2023/07/05 12:21:55;;;;;;;10.07;2.03;;;18.80;99.90;;;;;;5048733;28;20083;-77
2023/07/05 12:24:21;;;;;;;5.07;1.80;;;17.20;99.90;;;;;;5047408;28;20059;-73
2023/07/05 12:26:46;;;;;;;6.50;1.70;;;17.60;99.90;;;;;;5015557;28;20045;-75
2023/07/05 12:29:24;;;;;;;6.88;2.10;;;17.40;99.90;;;;;;5027587;28;20127;-75
2023/07/05 12:32:20;;;;;;;6.88;1.70;;;15.90;99.90;;;;;;5049673;28;20087;-77
2023/07/05 12:34:45;;;;;;;;;;;16.20;99.90;;;;;;5027637;28;20489;-74
2023/07/05 12:37:11;;;;;;;4.30;1.27;;;15.30;99.90;;;;;;5046645;28;20003;-74
2023/07/05 12:39:41;;;;;;;4.78;1.50;;;15.90;99.90;;;;;;5030024;28;20560;-79
2023/07/05 12:42:12;;;;;;;2.80;1.30;;;14.90;99.90;;;;;;5047380;28;20078;-76
2023/07/05 12:44:40;;;;;;;4.38;1.33;;;15.10;99.90;;;;;;5031177;28;20431;-72
2023/07/05 12:47:14;;;;;;;2.08;1.23;;;15.00;99.90;;;;;;5049831;28;20390;-76
2023/07/05 12:49:40;;;;;;;4.78;2.00;;;14.70;99.90;;;;;;5047383;28;20477;-73
2023/07/05 12:52:18;;;;;;;5.13;1.98;;;15.20;99.90;;;;;;5047073;28;20041;-74
2023/07/05 12:54:44;;;;;;;7.80;2.40;;;15.00;99.90;;;;;;5041156;28;20041;-74
2023/07/05 12:57:25;;;;;;;9.23;2.38;;;16.00;99.90;;;;;;5029654;28;20095;-76